createdAt,value
2018-05-12T00:01:09.904Z,10.83
2018-05-12T00:03:38.344Z,11.97
2018-05-12T00:06:11.727Z,13.27
2018-05-12T00:08:42.243Z,14.87
2018-05-12T00:11:10.691Z,12.87
2018-05-12T00:13:39.222Z,10.73
2018-05-12T00:16:10.790Z,10.93
2018-05-12T00:18:40.486Z,21.93
2018-05-12T00:21:13.833Z,13.07
2018-05-12T00:23:43.170Z,11.57
2018-05-12T00:26:14.432Z,10.67
2018-05-12T00:28:43.371Z,12.13
2018-05-12T00:31:11.822Z,11.00
2018-05-12T00:33:40.276Z,12.70
2018-05-12T00:36:08.787Z,12.57
2018-05-12T00:38:37.250Z,14.30
2018-05-12T00:41:05.743Z,15.03
2018-05-12T00:43:34.255Z,11.17
2018-05-12T00:46:02.710Z,16.57
2018-05-12T00:48:31.221Z,11.83
2018-05-12T00:50:59.654Z,12.27
2018-05-12T00:53:28.166Z,14.67
2018-05-12T00:55:56.299Z,17.33
2018-05-12T00:58:24.760Z,13.80
2018-05-12T01:00:55.676Z,13.70
2018-05-12T01:03:24.167Z,19.43
2018-05-12T01:05:53.387Z,10.97
2018-05-12T01:08:21.859Z,11.03
2018-05-12T01:10:50.319Z,10.73
2018-05-12T01:13:19.542Z,13.47
2018-05-12T01:15:47.987Z,10.83
2018-05-12T01:18:16.454Z,11.53
2018-05-12T01:20:44.899Z,15.33
2018-05-12T01:23:13.362Z,13.07
2018-05-12T01:25:41.807Z,11.67
2018-05-12T01:28:10.266Z,17.73
2018-05-12T01:30:39.087Z,12.63
2018-05-12T01:33:08.134Z,11.47
2018-05-12T01:35:37.746Z,12.13
2018-05-12T01:38:06.202Z,15.43
2018-05-12T01:40:34.647Z,13.87
2018-05-12T01:43:04.360Z,12.33
2018-05-12T01:45:33.015Z,12.27
2018-05-12T01:48:02.081Z,15.90
2018-05-12T01:50:31.479Z,13.60
2018-05-12T01:52:59.942Z,15.73
2018-05-12T01:55:28.417Z,13.03
2018-05-12T01:57:56.887Z,14.57
2018-05-12T02:00:25.326Z,13.73
2018-05-12T02:02:53.796Z,13.03
2018-05-12T02:05:22.250Z,14.33
2018-05-12T02:07:51.475Z,14.07
2018-05-12T02:10:19.923Z,14.73
2018-05-12T02:12:48.391Z,15.40
2018-05-12T02:15:16.845Z,13.37
2018-05-12T02:17:45.313Z,13.50
2018-05-12T02:20:13.765Z,14.00
2018-05-12T02:22:42.227Z,12.10
2018-05-12T02:25:10.674Z,13.33
2018-05-12T02:27:39.143Z,17.23
2018-05-12T02:30:07.617Z,12.50
2018-05-12T02:32:36.075Z,13.87
2018-05-12T02:35:03.879Z,15.43
2018-05-12T02:37:32.347Z,12.57
2018-05-12T02:40:00.803Z,14.80
2018-05-12T02:42:30.015Z,13.20
2018-05-12T02:44:58.487Z,21.97
2018-05-12T02:47:26.932Z,14.73
2018-05-12T02:49:55.404Z,14.30
2018-05-12T02:52:23.856Z,15.33
2018-05-12T02:54:52.315Z,14.70
2018-05-12T02:57:20.770Z,14.23
2018-05-12T02:59:49.225Z,15.80
2018-05-12T03:02:17.676Z,15.80
2018-05-12T03:04:46.148Z,18.03
2018-05-12T03:07:14.607Z,17.93
2018-05-12T03:09:43.838Z,19.80
2018-05-12T03:12:12.288Z,14.03
2018-05-12T03:14:40.762Z,16.20
2018-05-12T03:17:08.919Z,16.17
2018-05-12T03:19:37.387Z,17.70
2018-05-12T03:22:05.831Z,16.63
2018-05-12T03:24:34.298Z,17.57
2018-05-12T03:27:04.404Z,17.63
2018-05-12T03:29:32.870Z,20.37
2018-05-12T03:32:01.320Z,17.73
2018-05-12T03:34:29.784Z,18.27
2018-05-12T03:36:58.224Z,17.43
2018-05-12T03:39:26.702Z,17.40
2018-05-12T03:41:55.160Z,17.50
2018-05-12T03:44:23.631Z,18.87
2018-05-12T03:46:52.070Z,19.77
2018-05-12T03:49:20.577Z,21.53
2018-05-12T03:51:49.027Z,19.77
2018-05-12T03:54:17.500Z,19.57
2018-05-12T03:56:45.952Z,21.10
2018-05-12T03:59:14.432Z,20.50
2018-05-12T04:01:42.875Z,20.50
2018-05-12T04:04:23.143Z,21.53
2018-05-12T04:07:02.673Z,23.03
2018-05-12T04:09:42.207Z,21.27
2018-05-12T04:12:22.501Z,26.83
2018-05-12T04:14:50.967Z,21.43
2018-05-12T04:17:19.191Z,24.77
2018-05-12T04:19:48.502Z,24.00
2018-05-12T04:22:16.943Z,21.67
2018-05-12T04:24:45.421Z,21.83
2018-05-12T04:27:13.858Z,24.80
2018-05-12T04:29:42.339Z,26.10
2018-05-12T04:32:10.774Z,21.60
2018-05-12T04:34:39.233Z,19.80
2018-05-12T04:37:07.678Z,20.50
2018-05-12T04:39:36.144Z,20.33
2018-05-12T04:42:04.583Z,21.20
2018-05-12T04:44:33.038Z,20.63
2018-05-12T04:47:02.246Z,21.47
2018-05-12T04:49:30.718Z,21.23
2018-05-12T04:51:59.160Z,20.40
2018-05-12T04:54:28.395Z,21.50
2018-05-12T04:56:56.843Z,21.50
2018-05-12T04:59:25.306Z,20.20
2018-05-12T05:01:53.751Z,24.00
2018-05-12T05:04:22.210Z,21.73
2018-05-12T05:06:50.647Z,21.27
2018-05-12T05:09:19.114Z,20.63
2018-05-12T05:11:47.562Z,23.27
2018-05-12T05:14:15.797Z,21.53
2018-05-12T05:16:44.259Z,22.47
2018-05-12T05:19:12.734Z,22.57
2018-05-12T05:21:41.836Z,20.30
2018-05-12T05:24:10.314Z,22.50
2018-05-12T05:26:38.424Z,19.17
2018-05-12T05:29:06.874Z,20.07
2018-05-12T05:31:35.339Z,19.43
2018-05-12T05:34:03.775Z,20.17
2018-05-12T05:36:32.231Z,19.23
2018-05-12T05:39:00.675Z,19.37
2018-05-12T05:41:29.572Z,19.23
2018-05-12T05:43:58.019Z,19.47
2018-05-12T05:46:26.478Z,17.37
2018-05-12T05:48:54.928Z,20.20
2018-05-12T05:51:23.387Z,18.27
2018-05-12T05:53:51.832Z,17.97
2018-05-12T05:56:20.298Z,19.30
2018-05-12T05:58:48.750Z,17.83
2018-05-12T06:01:17.213Z,20.83
2018-05-12T06:03:45.834Z,18.97
2018-05-12T06:06:15.023Z,16.60
2018-05-12T06:08:43.471Z,18.10
2018-05-12T06:11:11.926Z,15.90
2018-05-12T06:13:41.906Z,15.03
2018-05-12T06:16:10.362Z,16.17
2018-05-12T06:18:38.798Z,14.20
2018-05-12T06:21:07.263Z,14.87
2018-05-12T06:23:35.818Z,14.30
2018-05-12T06:26:04.333Z,15.27
2018-05-12T06:28:32.775Z,13.27
2018-05-12T06:31:01.243Z,12.43
2018-05-12T06:33:29.761Z,13.40
2018-05-12T06:35:58.362Z,11.33
2018-05-12T06:38:26.807Z,14.90
2018-05-12T06:40:56.059Z,13.03
2018-05-12T06:43:25.252Z,13.50
2018-05-12T06:45:54.547Z,11.63
2018-05-12T06:48:22.986Z,14.47
2018-05-12T06:50:51.458Z,12.23
2018-05-12T06:53:19.902Z,11.63
2018-05-12T06:55:48.358Z,12.27
2018-05-12T06:58:16.802Z,12.17
2018-05-12T07:00:45.272Z,12.17
2018-05-12T07:03:13.715Z,12.03
2018-05-12T07:05:42.182Z,13.47
2018-05-12T07:08:10.624Z,11.20
2018-05-12T07:10:39.087Z,11.47
2018-05-12T07:13:07.530Z,11.43
2018-05-12T07:15:36.003Z,11.53
2018-05-12T07:18:05.631Z,12.93
2018-05-12T07:20:34.106Z,12.03
2018-05-12T07:23:02.550Z,12.60
2018-05-12T07:25:31.032Z,13.03
2018-05-12T07:27:59.470Z,11.70
2018-05-12T07:30:29.463Z,12.03
2018-05-12T07:32:57.900Z,13.30
2018-05-12T07:35:26.364Z,12.83
2018-05-12T07:37:54.808Z,12.23
2018-05-12T07:40:23.254Z,10.90
2018-05-12T07:42:51.722Z,11.67
2018-05-12T07:45:20.164Z,12.43
2018-05-12T07:47:48.643Z,14.10
2018-05-12T07:50:17.115Z,11.83
2018-05-12T07:52:45.575Z,9.20
2018-05-12T07:55:14.679Z,13.33
2018-05-12T07:57:43.403Z,11.10
2018-05-12T08:00:12.684Z,11.17
2018-05-12T08:02:41.147Z,10.50
2018-05-12T08:05:09.591Z,11.70
2018-05-12T08:07:38.051Z,10.33
2018-05-12T08:10:06.509Z,17.00
2018-05-12T08:12:35.061Z,13.30
2018-05-12T08:15:04.068Z,11.98
2018-05-12T08:17:33.101Z,10.57
2018-05-12T08:20:02.123Z,12.75
2018-05-12T08:22:32.088Z,11.45
2018-05-12T08:25:01.101Z,12.27
2018-05-12T08:27:29.570Z,13.20
2018-05-12T08:29:58.013Z,12.10
2018-05-12T08:32:26.471Z,12.17
2018-05-12T08:34:54.919Z,10.77
2018-05-12T08:37:23.387Z,10.27
2018-05-12T08:39:51.852Z,12.20
2018-05-12T08:42:20.324Z,9.93
2018-05-12T08:44:48.753Z,11.37
2018-05-12T08:47:17.211Z,11.50
2018-05-12T08:49:46.408Z,9.47
2018-05-12T08:52:15.626Z,9.30
2018-05-12T08:54:44.063Z,9.07
2018-05-12T08:57:12.563Z,10.60
2018-05-12T08:59:41.759Z,12.03
2018-05-12T09:02:10.979Z,11.40
2018-05-12T09:04:39.844Z,11.03
2018-05-12T09:07:08.375Z,14.93
2018-05-12T09:09:36.927Z,8.83
2018-05-12T09:12:06.146Z,12.60
2018-05-12T09:14:35.481Z,9.87
2018-05-12T09:17:03.950Z,13.63
2018-05-12T09:19:32.386Z,9.00
2018-05-12T09:22:01.609Z,10.43
2018-05-12T09:24:30.123Z,11.33
2018-05-12T09:26:58.584Z,8.97
2018-05-12T09:29:27.023Z,9.07
2018-05-12T09:31:55.559Z,10.17
2018-05-12T09:34:24.007Z,11.27
2018-05-12T09:36:52.759Z,10.33
2018-05-12T09:39:21.204Z,7.50
2018-05-12T09:41:49.663Z,9.50
2018-05-12T09:44:18.094Z,7.97
2018-05-12T09:46:46.323Z,13.73
2018-05-12T09:49:14.830Z,10.80
2018-05-12T09:51:43.293Z,9.10
2018-05-12T09:54:11.759Z,9.50
2018-05-12T09:56:41.799Z,8.00
2018-05-12T09:59:10.231Z,8.33
2018-05-12T10:01:38.671Z,8.37
2018-05-12T10:04:07.123Z,8.73
2018-05-12T10:06:35.559Z,9.47
2018-05-12T10:09:03.762Z,7.37
2018-05-12T10:11:32.194Z,7.83
2018-05-12T10:14:01.715Z,9.65
2018-05-12T10:16:30.166Z,8.43
2018-05-12T10:18:58.619Z,8.93
2018-05-12T10:21:28.552Z,11.67
2018-05-12T10:23:57.964Z,6.27
2018-05-12T10:26:26.415Z,5.80
2018-05-12T10:28:54.878Z,8.43
2018-05-12T10:31:23.307Z,6.13
2018-05-12T10:33:51.930Z,6.37
2018-05-12T10:36:20.360Z,8.10
2018-05-12T10:38:49.658Z,8.43
2018-05-12T10:41:18.252Z,7.43
2018-05-12T10:43:47.510Z,14.60
2018-05-12T10:46:15.993Z,11.37
2018-05-12T10:48:44.459Z,13.63
2018-05-12T10:51:12.906Z,9.80
2018-05-12T10:53:42.690Z,20.60
2018-05-12T10:56:11.124Z,12.93
2018-05-12T10:58:39.588Z,10.63
2018-05-12T11:01:07.695Z,13.00
2018-05-12T11:03:36.159Z,11.80
2018-05-12T11:06:04.291Z,10.17
2018-05-12T11:08:32.758Z,9.83
2018-05-12T11:11:01.221Z,8.13
2018-05-12T11:13:29.692Z,30.50
2018-05-12T11:15:58.396Z,20.33
2018-05-12T11:18:26.323Z,26.03
2018-05-12T11:20:54.767Z,15.83
2018-05-12T11:23:23.231Z,57.23
2018-05-12T11:25:51.679Z,8.70
2018-05-12T11:28:21.183Z,13.13
2018-05-12T11:30:49.627Z,12.17
2018-05-12T11:33:18.084Z,8.83
2018-05-12T11:35:46.530Z,9.60
2018-05-12T11:38:14.995Z,7.60
2018-05-12T11:40:43.436Z,14.90
2018-05-12T11:43:11.897Z,8.97
2018-05-12T11:45:40.339Z,10.23
2018-05-12T11:48:08.819Z,11.63
2018-05-12T11:50:37.264Z,8.90
2018-05-12T11:53:05.723Z,27.23
2018-05-12T11:55:34.165Z,21.77
2018-05-12T11:58:02.627Z,8.07
2018-05-12T12:00:31.822Z,10.63
2018-05-12T12:03:00.426Z,10.20
2018-05-12T12:05:28.914Z,10.40
2018-05-12T12:07:57.366Z,7.30
2018-05-12T12:10:26.522Z,8.77
2018-05-12T12:12:54.955Z,10.67
2018-05-12T12:15:23.616Z,9.63
2018-05-12T12:17:51.814Z,7.93
2018-05-12T12:20:20.039Z,7.83
2018-05-12T12:22:49.113Z,9.47
2018-05-12T12:25:18.311Z,8.53
2018-05-12T12:27:46.468Z,7.90
2018-05-12T12:30:14.939Z,6.83
2018-05-12T12:32:43.375Z,7.33
2018-05-12T12:35:11.830Z,6.70
2018-05-12T12:37:40.315Z,9.00
2018-05-12T12:40:08.791Z,10.33
2018-05-12T12:42:37.239Z,8.07
2018-05-12T12:45:06.674Z,8.57
2018-05-12T12:47:36.023Z,9.53
2018-05-12T12:50:04.486Z,13.00
2018-05-12T12:52:32.932Z,7.17
2018-05-12T12:55:01.393Z,9.37
2018-05-12T12:57:29.830Z,8.67
2018-05-12T12:59:58.063Z,7.63
2018-05-12T13:02:26.519Z,10.83
2018-05-12T13:04:56.194Z,10.20
2018-05-12T13:07:24.774Z,21.80
2018-05-12T13:09:53.231Z,8.40
2018-05-12T13:12:22.452Z,7.17
2018-05-12T13:14:50.905Z,6.43
2018-05-12T13:17:19.358Z,16.43
2018-05-12T13:19:47.872Z,9.33
2018-05-12T13:22:16.331Z,8.20
2018-05-12T13:24:44.574Z,8.33
2018-05-12T13:27:12.782Z,5.87
2018-05-12T13:29:41.246Z,7.73
2018-05-12T13:32:09.696Z,6.40
2018-05-12T13:34:38.151Z,6.77
2018-05-12T13:37:06.588Z,7.23
2018-05-12T13:39:35.053Z,8.20
2018-05-12T13:42:03.164Z,5.90
2018-05-12T13:44:31.628Z,10.63
2018-05-12T13:47:00.068Z,5.43
2018-05-12T13:49:28.530Z,7.80
2018-05-12T13:51:56.969Z,5.17
2018-05-12T13:54:25.480Z,6.67
2018-05-12T13:56:54.162Z,7.17
2018-05-12T13:59:22.730Z,5.50
2018-05-12T14:01:51.164Z,6.07
2018-05-12T14:04:19.629Z,5.90
2018-05-12T14:06:49.427Z,6.60
2018-05-12T14:09:18.678Z,7.20
2018-05-12T14:11:47.121Z,5.50
2018-05-12T14:14:15.559Z,8.47
2018-05-12T14:16:44.020Z,12.00
2018-05-12T14:19:12.470Z,6.53
2018-05-12T14:21:40.910Z,9.30
2018-05-12T14:24:09.359Z,6.63
2018-05-12T14:26:37.822Z,10.63
2018-05-12T14:29:06.775Z,6.40
2018-05-12T14:31:35.231Z,9.27
2018-05-12T14:34:03.672Z,6.70
2018-05-12T14:36:32.887Z,9.13
2018-05-12T14:39:01.328Z,6.13
2018-05-12T14:41:29.464Z,23.77
2018-05-12T14:43:57.912Z,13.70
2018-05-12T14:46:27.135Z,5.20
2018-05-12T14:48:55.259Z,5.67
2018-05-12T14:51:23.727Z,7.53
2018-05-12T14:53:52.159Z,7.70
2018-05-12T14:56:20.664Z,7.83
2018-05-12T14:58:49.099Z,5.60
2018-05-12T15:01:18.326Z,8.30
2018-05-12T15:03:46.807Z,6.90
2018-05-12T15:06:15.262Z,5.13
2018-05-12T15:08:44.463Z,5.97
2018-05-12T15:11:13.685Z,8.77
2018-05-12T15:13:42.117Z,6.30
2018-05-12T15:16:10.567Z,6.43
2018-05-12T15:18:39.003Z,7.67
2018-05-12T15:21:07.475Z,6.60
2018-05-12T15:23:35.927Z,4.97
2018-05-12T15:26:04.374Z,7.47
2018-05-12T15:28:32.651Z,5.57
2018-05-12T15:31:01.147Z,6.03
2018-05-12T15:33:29.591Z,8.10
2018-05-12T15:35:58.048Z,5.50
2018-05-12T15:38:26.494Z,7.47
2018-05-12T15:40:54.951Z,5.60
2018-05-12T15:43:23.403Z,8.73
2018-05-12T15:45:51.868Z,8.97
2018-05-12T15:48:20.306Z,6.27
2018-05-12T15:50:48.770Z,6.17
2018-05-12T15:53:17.202Z,5.90
2018-05-12T15:55:45.696Z,5.80
2018-05-12T15:58:14.141Z,4.53
2018-05-12T16:00:42.598Z,6.23
2018-05-12T16:03:11.874Z,6.70
2018-05-12T16:05:41.231Z,8.27
2018-05-12T16:08:09.674Z,5.10
2018-05-12T16:10:38.126Z,5.40
2018-05-12T16:13:06.227Z,4.90
2018-05-12T16:15:34.682Z,6.33
2018-05-12T16:18:03.115Z,9.50
2018-05-12T16:20:31.608Z,9.17
2018-05-12T16:23:00.207Z,5.50
2018-05-12T16:25:29.563Z,5.57
2018-05-12T16:27:58.025Z,6.43
2018-05-12T16:30:26.466Z,9.83
2018-05-12T16:32:54.926Z,9.83
2018-05-12T16:35:23.370Z,7.37
2018-05-12T16:37:51.820Z,7.13
2018-05-12T16:40:21.395Z,7.43
2018-05-12T16:42:49.867Z,6.10
2018-05-12T16:45:18.314Z,5.70
2018-05-12T16:47:46.761Z,5.60
2018-05-12T16:50:15.206Z,6.10
2018-05-12T16:52:45.346Z,6.60
2018-05-12T16:55:13.779Z,8.60
2018-05-12T16:57:42.251Z,10.53
2018-05-12T17:00:10.351Z,9.50
2018-05-12T17:02:38.810Z,9.47
2018-05-12T17:05:07.246Z,10.00
2018-05-12T17:07:35.707Z,8.73
2018-05-12T17:10:03.811Z,10.40
2018-05-12T17:12:32.287Z,9.03
2018-05-12T17:15:00.725Z,8.13
2018-05-12T17:17:29.191Z,13.20
2018-05-12T17:19:57.632Z,8.47
2018-05-12T17:22:26.086Z,9.17
2018-05-12T17:24:55.290Z,8.53
2018-05-12T17:27:23.750Z,8.80
2018-05-12T17:29:52.267Z,8.57
2018-05-12T17:32:20.834Z,9.17
2018-05-12T17:34:50.095Z,9.60
2018-05-12T17:37:18.555Z,10.27
2018-05-12T17:39:47.003Z,9.30
2018-05-12T17:42:16.218Z,9.70
2018-05-12T17:44:44.661Z,9.43
2018-05-12T17:47:13.180Z,9.50
2018-05-12T17:49:41.627Z,10.33
2018-05-12T17:52:10.092Z,9.60
2018-05-12T17:54:38.534Z,10.47
2018-05-12T17:57:06.992Z,10.60
2018-05-12T17:59:35.439Z,11.40
2018-05-12T18:02:03.330Z,13.07
2018-05-12T18:04:31.772Z,12.33
2018-05-12T18:07:00.235Z,11.40
2018-05-12T18:09:28.693Z,12.63
2018-05-12T18:11:58.369Z,12.47
2018-05-12T18:14:26.894Z,15.90
2018-05-12T18:16:55.376Z,12.67
2018-05-12T18:19:28.032Z,18.13
2018-05-12T18:21:57.201Z,12.50
2018-05-12T18:24:26.531Z,13.00
2018-05-12T18:26:55.142Z,15.23
2018-05-12T18:29:24.943Z,14.33
2018-05-12T18:31:54.792Z,14.03
2018-05-12T18:34:23.519Z,12.40
2018-05-12T18:36:52.127Z,14.00
2018-05-12T18:39:21.453Z,14.17
2018-05-12T18:41:54.351Z,14.63
2018-05-12T18:44:28.405Z,17.27
2018-05-12T18:46:57.663Z,14.43
2018-05-12T18:49:26.106Z,14.40
2018-05-12T18:51:54.547Z,15.40
2018-05-12T18:54:23.013Z,25.80
2018-05-12T18:56:51.454Z,15.80
2018-05-12T18:59:19.929Z,14.77
2018-05-12T19:01:48.406Z,14.70
2018-05-12T19:04:16.876Z,16.87
2018-05-12T19:06:45.345Z,16.47
2018-05-12T19:09:13.807Z,15.80
2018-05-12T19:11:42.259Z,16.13
2018-05-12T19:14:10.719Z,18.10
2018-05-12T19:16:40.372Z,17.00
2018-05-12T19:19:08.832Z,17.27
2018-05-12T19:21:37.266Z,18.07
2018-05-12T19:24:05.742Z,18.07
2018-05-12T19:26:34.201Z,19.30
2018-05-12T19:29:02.669Z,18.67
2018-05-12T19:31:31.789Z,18.97
2018-05-12T19:34:00.262Z,18.90
2018-05-12T19:36:28.707Z,19.53
2018-05-12T19:38:57.177Z,20.83
2018-05-12T19:41:25.622Z,28.40
2018-05-12T19:43:54.090Z,19.50
2018-05-12T19:46:22.525Z,22.60
2018-05-12T19:48:50.991Z,21.30
2018-05-12T19:51:19.431Z,23.23
2018-05-12T19:53:47.893Z,22.97
2018-05-12T19:56:16.339Z,22.23
2018-05-12T19:58:44.801Z,24.10
2018-05-12T20:01:13.254Z,24.37
2018-05-12T20:03:41.728Z,23.87
2018-05-12T20:06:10.174Z,23.40
2018-05-12T20:08:38.636Z,25.30
2018-05-12T20:11:07.081Z,24.60
2018-05-12T20:13:35.553Z,27.20
2018-05-12T20:16:04.070Z,24.77
2018-05-12T20:18:32.654Z,25.20
2018-05-12T20:21:01.102Z,26.23
2018-05-12T20:23:29.558Z,24.90
2018-05-12T20:25:58.003Z,28.10
2018-05-12T20:28:26.475Z,26.43
2018-05-12T20:30:54.962Z,27.97
2018-05-12T20:33:23.590Z,27.40
2018-05-12T20:35:51.699Z,26.80
2018-05-12T20:38:20.166Z,29.47
2018-05-12T20:40:48.602Z,28.80
2018-05-12T20:43:17.066Z,28.30
2018-05-12T20:45:45.510Z,29.67
2018-05-12T20:48:13.980Z,29.40
2018-05-12T20:50:42.427Z,29.83
2018-05-12T20:53:10.888Z,30.83
2018-05-12T20:55:39.330Z,31.17
2018-05-12T20:58:07.775Z,32.47
2018-05-12T21:00:36.236Z,32.07
2018-05-12T21:03:04.763Z,30.60
2018-05-12T21:05:33.337Z,30.10
2018-05-12T21:08:01.785Z,32.80
2018-05-12T21:10:30.243Z,31.87
2018-05-12T21:12:58.687Z,33.13
2018-05-12T21:15:27.147Z,30.70
2018-05-12T21:17:55.251Z,32.00
2018-05-12T21:20:23.715Z,30.13
2018-05-12T21:22:52.155Z,32.40
2018-05-12T21:25:20.615Z,31.70
2018-05-12T21:27:49.064Z,31.03
2018-05-12T21:30:17.531Z,33.73
2018-05-12T21:32:45.989Z,32.43
2018-05-12T21:35:14.458Z,32.93
2018-05-12T21:37:42.904Z,32.17
2018-05-12T21:40:11.372Z,34.00
2018-05-12T21:42:39.816Z,34.97
2018-05-12T21:45:08.283Z,34.57
2018-05-12T21:47:36.736Z,36.53
2018-05-12T21:50:05.205Z,32.53
2018-05-12T21:52:34.426Z,34.50
2018-05-12T21:55:02.884Z,34.67
2018-05-12T21:57:31.327Z,35.40
2018-05-12T21:59:59.831Z,35.43
2018-05-12T22:02:28.284Z,43.10
2018-05-12T22:04:56.743Z,32.93
2018-05-12T22:07:24.846Z,37.70
2018-05-12T22:09:53.308Z,35.80
2018-05-12T22:12:21.760Z,35.13
2018-05-12T22:14:50.222Z,36.57
2018-05-12T22:17:18.675Z,35.30
2018-05-12T22:19:47.138Z,33.97
2018-05-12T22:22:15.585Z,37.47
2018-05-12T22:24:44.043Z,35.73
2018-05-12T22:27:12.482Z,36.47
2018-05-12T22:29:40.942Z,35.73
2018-05-12T22:32:09.383Z,35.43
2018-05-12T22:34:37.843Z,37.00
2018-05-12T22:37:06.286Z,38.90
2018-05-12T22:39:34.751Z,37.47
2018-05-12T22:42:03.627Z,36.77
2018-05-12T22:44:32.094Z,35.37
2018-05-12T22:47:00.546Z,39.17
2018-05-12T22:49:29.002Z,38.47
2018-05-12T22:51:57.448Z,37.00
2018-05-12T22:54:25.917Z,37.47
2018-05-12T22:56:54.363Z,37.73
2018-05-12T22:59:22.835Z,42.90
2018-05-12T23:01:51.275Z,37.17
2018-05-12T23:04:19.719Z,36.70
2018-05-12T23:06:48.181Z,37.70
2018-05-12T23:09:16.626Z,39.53
2018-05-12T23:11:45.082Z,39.17
2018-05-12T23:14:13.527Z,38.07
2018-05-12T23:16:41.987Z,37.90
2018-05-12T23:19:11.196Z,39.50
2018-05-12T23:21:39.649Z,39.90
2018-05-12T23:24:08.088Z,41.13
2018-05-12T23:26:36.547Z,38.43
2018-05-12T23:29:04.987Z,37.60
2018-05-12T23:31:33.451Z,41.57
2018-05-12T23:34:01.909Z,38.10
2018-05-12T23:36:30.387Z,39.73
2018-05-12T23:38:58.828Z,40.53
2018-05-12T23:41:27.291Z,39.37
2018-05-12T23:43:56.770Z,41.30
2018-05-12T23:46:25.236Z,41.73
2018-05-12T23:48:53.687Z,42.37
2018-05-12T23:51:22.176Z,40.20
2018-05-12T23:53:50.794Z,44.93
2018-05-12T23:56:19.495Z,45.03
2018-05-12T23:58:47.947Z,44.27
